Time;durP1;ratioP1;P1;durP2;ratioP2;P2;SDS_P1;SDS_P2;PMS_P1;PMS_P2;Temp;Humidity;BMP_temperature;BMP_pressure;BME280_temperature;BME280_humidity;BME280_pressure;Samples;Min_cycle;Max_cycle;Signal;HPM_P1;HPM_P2
2020/12/08 00:00:32;;;;;;;;;;;;;;;19.51;42.05;100513.34;5096574;28;740;-47
2020/12/08 00:02:57;;;;;;;;;;;;;;;20.35;40.37;100516.03;5096667;28;810;-59
2020/12/08 00:05:23;;;;;;;;;;;;;;;20.88;38.95;100519.44;5096635;28;771;-47
2020/12/08 00:07:48;;;;;;;;;;;;;;;20.33;40.13;100504.47;5096548;28;744;-59
2020/12/08 00:10:20;;;;;;;;;;;;;;;20.23;40.38;100520.41;5095853;28;1901;-49
2020/12/08 00:12:46;;;;;;;;;;;;;;;19.79;41.22;100508.75;5096608;28;803;-59
2020/12/08 00:15:12;;;;;;;;;;;;;;;19.99;41.02;100511.19;5096572;28;794;-48
2020/12/08 00:17:37;;;;;;;;;;;;;;;20.82;39.05;100507.66;5096271;28;1043;-60
2020/12/08 00:20:04;;;;;;;;;;;;;;;20.54;39.65;100512.38;5096475;28;827;-49
2020/12/08 00:22:30;;;;;;;;;;;;;;;20.38;40.11;100520.13;5096323;28;747;-61
2020/12/08 00:24:55;;;;;;;;;;;;;;;19.82;40.89;100517.28;5095977;28;997;-58
2020/12/08 00:27:21;;;;;;;;;;;;;;;19.93;41.06;100531.69;5096390;28;791;-48
2020/12/08 00:29:46;;;;;;;;;;;;;;;20.74;39.08;100515.88;5099921;28;1973;-59
2020/12/08 00:32:12;;;;;;;;;;;;;;;20.32;40.06;100526.88;5100313;28;783;-47
2020/12/08 00:34:37;;;;;;;;;;;;;;;20.29;40.22;100499.88;5098961;28;839;-57
2020/12/08 00:37:06;;;;;;;;;;;;;;;19.79;40.99;100506.81;5100326;28;723;-48
2020/12/08 00:39:31;;;;;;;;;;;;;;;19.74;41.36;100504.13;5100431;28;739;-49
2020/12/08 00:41:57;;;;;;;;;;;;;;;20.58;39.69;100501.50;5100159;28;953;-58
2020/12/08 00:44:22;;;;;;;;;;;;;;;20.73;39.14;100503.97;5100025;28;854;-48
2020/12/08 00:46:51;;;;;;;;;;;;;;;20.26;40.13;100503.22;5100280;28;756;-57
2020/12/08 00:49:17;;;;;;;;;;;;;;;19.95;40.59;100504.63;5098900;28;1909;-56
2020/12/08 00:51:43;;;;;;;;;;;;;;;19.97;40.72;100504.31;5099116;28;1185;-47
2020/12/08 00:54:09;;;;;;;;;;;;;;;20.70;39.11;100504.59;5098498;28;828;-58
2020/12/08 00:56:35;;;;;;;;;;;;;;;20.79;39.02;100497.25;5098716;28;1262;-56
2020/12/08 00:59:01;;;;;;;;;;;;;;;20.47;39.73;100500.91;5098909;28;1247;-56
2020/12/08 01:01:27;;;;;;;;;;;;;;;19.99;40.62;100497.38;5098515;28;1852;-48
2020/12/08 01:03:53;;;;;;;;;;;;;;;19.79;41.27;100501.31;5098530;28;1089;-56
2020/12/08 01:06:24;;;;;;;;;;;;;;;20.64;39.32;100501.09;5098858;28;1125;-55
2020/12/08 01:08:50;;;;;;;;;;;;;;;20.68;39.19;100491.09;5098549;28;1905;-48
2020/12/08 01:11:16;;;;;;;;;;;;;;;20.28;40.04;100484.44;5098118;28;1895;-56
2020/12/08 01:13:41;;;;;;;;;;;;;;;19.89;40.52;100474.66;5098688;28;1137;-49
2020/12/08 01:16:14;;;;;;;;;;;;;;;19.63;41.51;100489.69;5098736;28;1105;-46
2020/12/08 01:18:40;;;;;;;;;;;;;;;20.59;39.44;100487.38;5099130;28;1036;-60
2020/12/08 01:21:07;;;;;;;;;;;;;;;21.00;38.31;100474.69;5098586;28;1459;-48
2020/12/08 01:23:34;;;;;;;;;;;;;;;20.46;39.54;100477.97;5098379;28;1188;-48
2020/12/08 01:26:02;;;;;;;;;;;;;;;20.20;39.94;100468.56;5097944;28;1180;-47
2020/12/08 01:28:29;;;;;;;;;;;;;;;19.62;41.35;100467.94;5098389;28;1322;-49
2020/12/08 01:30:57;;;;;;;;;;;;;;;20.17;40.05;100464.47;5098024;28;1991;-47
2020/12/08 01:33:23;;;;;;;;;;;;;;;20.91;38.58;100459.97;5098308;28;1138;-48
2020/12/08 01:35:49;;;;;;;;;;;;;;;20.40;39.44;100456.28;5097891;28;1180;-59
2020/12/08 01:38:14;;;;;;;;;;;;;;;20.25;39.88;100454.69;5098175;28;1285;-59
2020/12/08 01:40:42;;;;;;;;;;;;;;;19.55;41.16;100456.47;5096356;28;1554;-48
2020/12/08 01:43:08;;;;;;;;;;;;;;;20.03;40.57;100453.41;5098120;28;1158;-59
2020/12/08 01:45:36;;;;;;;;;;;;;;;20.94;38.33;100454.59;5097603;28;1252;-58
2020/12/08 01:48:01;;;;;;;;;;;;;;;20.48;39.32;100450.06;5097411;28;900;-49
2020/12/08 01:50:30;;;;;;;;;;;;;;;20.10;40.19;100459.34;5081150;28;1910;-59
2020/12/08 01:52:55;;;;;;;;;;;;;;;19.77;40.78;100451.09;5097489;28;791;-47
2020/12/08 01:55:21;;;;;;;;;;;;;;;20.22;40.06;100438.72;5076545;28;1113;-49
2020/12/08 01:57:49;;;;;;;;;;;;;;;20.99;38.24;100445.41;5061201;28;1169;-59
2020/12/08 02:00:17;;;;;;;;;;;;;;;20.37;39.54;100451.38;5094288;28;1164;-60
2020/12/08 02:02:43;;;;;;;;;;;;;;;20.15;39.81;100456.50;5078143;28;598;-48
2020/12/08 02:05:21;;;;;;;;;;;;;;;19.68;40.95;100447.41;5078372;28;831;-54
2020/12/08 02:07:48;;;;;;;;;;;;;;;19.88;40.66;100437.16;5094086;28;1205;-48
2020/12/08 02:10:14;;;;;;;;;;;;;;;20.69;38.94;100431.13;5081486;28;1990;-46
2020/12/08 02:12:39;;;;;;;;;;;;;;;20.74;38.43;100438.50;5098546;28;961;-57
2020/12/08 02:15:05;;;;;;;;;;;;;;;20.31;39.38;100432.19;5097248;28;1093;-58
2020/12/08 02:17:33;;;;;;;;;;;;;;;19.94;40.27;100420.19;5096711;28;1166;-48
2020/12/08 02:19:59;;;;;;;;;;;;;;;19.36;41.62;100421.44;5097088;28;1240;-61
2020/12/08 02:22:27;;;;;;;;;;;;;;;20.16;39.88;100410.38;5097118;28;1101;-47
2020/12/08 02:24:53;;;;;;;;;;;;;;;20.95;38.08;100414.00;5097856;28;981;-48
2020/12/08 02:27:20;;;;;;;;;;;;;;;20.27;39.57;100397.19;5096935;28;1200;-48
2020/12/08 02:29:48;;;;;;;;;;;;;;;20.20;39.57;100413.34;5080290;28;1910;-60
2020/12/08 02:32:14;;;;;;;;;;;;;;;19.54;40.95;100402.44;5096649;28;1116;-49
2020/12/08 02:34:40;;;;;;;;;;;;;;;20.55;38.93;100400.72;5096966;28;1133;-59
2020/12/08 02:37:05;;;;;;;;;;;;;;;21.04;37.84;100401.03;5097929;28;752;-60
2020/12/08 02:39:41;;;;;;;;;;;;;;;20.32;39.29;100399.84;5097948;28;1019;-48
2020/12/08 02:42:06;;;;;;;;;;;;;;;19.90;40.05;100388.81;5097781;28;774;-58
2020/12/08 02:44:32;;;;;;;;;;;;;;;19.57;41.02;100397.13;5097763;28;735;-47
2020/12/08 02:46:57;;;;;;;;;;;;;;;20.52;38.88;100404.97;5097646;28;743;-58
2020/12/08 02:49:24;;;;;;;;;;;;;;;20.56;38.79;100420.91;5096631;28;1913;-58
2020/12/08 02:51:55;;;;;;;;;;;;;;;20.32;39.50;100422.75;5096552;28;1192;-56
2020/12/08 02:54:20;;;;;;;;;;;;;;;20.02;39.95;100415.09;5097586;28;791;-58
2020/12/08 02:56:46;;;;;;;;;;;;;;;19.26;41.45;100408.66;5075621;28;1110;-57
2020/12/08 02:59:22;;;;;;;;;;;;;;;20.32;39.60;100405.38;5076362;28;1134;-56
2020/12/08 03:01:48;;;;;;;;;;;;;;;20.96;37.79;100394.31;5075816;28;1225;-58
2020/12/08 03:04:13;;;;;;;;;;;;;;;20.30;39.56;100386.38;5075627;28;1300;-48
2020/12/08 03:06:42;;;;;;;;;;;;;;;20.03;39.70;100392.69;5092859;28;2126;-47
2020/12/08 03:09:08;;;;;;;;;;;;;;;19.63;40.59;100390.38;5075798;28;1965;-60
2020/12/08 03:11:35;;;;;;;;;;;;;;;20.22;39.53;100389.03;5091866;28;1138;-47
2020/12/08 03:14:10;;;;;;;;;;;;;;;20.74;38.12;100384.06;5096341;28;1252;-59
2020/12/08 03:16:38;;;;;;;;;;;;;;;20.15;39.65;100395.78;5095967;28;1181;-57
2020/12/08 03:19:04;;;;;;;;;;;;;;;20.01;40.02;100400.47;5078625;28;1379;-47
2020/12/08 03:21:32;;;;;;;;;;;;;;;19.58;40.84;100408.97;5096223;28;1251;-48
2020/12/08 03:23:58;;;;;;;;;;;;;;;20.64;38.50;100428.47;5095537;28;1222;-49
2020/12/08 03:26:24;;;;;;;;;;;;;;;20.68;38.32;100440.56;5095885;28;1101;-48
2020/12/08 03:28:51;;;;;;;;;;;;;;;20.29;39.30;100451.00;5095992;28;1975;-51
2020/12/08 03:31:17;;;;;;;;;;;;;;;20.15;39.57;100445.47;5095712;28;1149;-54
2020/12/08 03:33:43;;;;;;;;;;;;;;;19.62;40.63;100462.41;5095976;28;1121;-51
2020/12/08 03:36:12;;;;;;;;;;;;;;;19.81;40.58;100465.97;5096305;28;1176;-59
2020/12/08 03:38:38;;;;;;;;;;;;;;;20.85;38.37;100468.34;5095570;28;1177;-58
2020/12/08 03:41:03;;;;;;;;;;;;;;;20.52;38.66;100476.78;5095567;28;978;-47
2020/12/08 03:43:33;;;;;;;;;;;;;;;20.25;39.50;100474.00;5095906;28;1284;-58
2020/12/08 03:45:59;;;;;;;;;;;;;;;19.90;40.08;100481.81;5096754;28;771;-48
2020/12/08 03:48:25;;;;;;;;;;;;;;;19.43;41.33;100490.00;5095867;28;1117;-51
2020/12/08 03:50:52;;;;;;;;;;;;;;;20.05;40.09;100495.34;5095618;28;1980;-52
2020/12/08 03:53:23;;;;;;;;;;;;;;;20.79;38.21;100496.41;5095483;28;1223;-48
2020/12/08 03:55:57;;;;;;;;;;;;;;;20.17;39.75;100495.69;5095516;28;1204;-47
2020/12/08 03:58:22;;;;;;;;;;;;;;;20.03;39.99;100496.78;5095315;28;1232;-49
2020/12/08 04:00:48;;;;;;;;;;;;;;;19.86;40.31;100492.63;5095386;28;1101;-59
2020/12/08 04:03:13;;;;;;;;;;;;;;;19.92;40.27;100501.66;5094775;28;1231;-50
2020/12/08 04:05:43;;;;;;;;;;;;;;;20.75;38.51;100484.31;5096639;28;927;-49
2020/12/08 04:08:10;;;;;;;;;;;;;;;20.29;39.29;100499.88;5095498;28;1153;-50
2020/12/08 04:10:42;;;;;;;;;;;;;;;20.27;39.51;100491.06;5095297;28;1909;-58
2020/12/08 04:13:08;;;;;;;;;;;;;;;20.03;39.86;100492.06;5095329;28;1124;-56
2020/12/08 04:15:36;;;;;;;;;;;;;;;19.35;41.20;100493.44;5095734;28;1177;-48
2020/12/08 04:18:02;;;;;;;;;;;;;;;20.32;39.57;100500.06;5095158;28;1189;-49
2020/12/08 04:20:29;;;;;;;;;;;;;;;20.62;38.68;100495.09;5094941;28;1224;-54
2020/12/08 04:22:54;;;;;;;;;;;;;;;20.24;39.51;100481.44;5095364;28;1201;-65
2020/12/08 04:25:21;;;;;;;;;;;;;;;20.06;39.87;100477.63;5094875;28;1342;-47
2020/12/08 04:27:47;;;;;;;;;;;;;;;19.47;40.93;100475.34;5095554;28;1247;-66
2020/12/08 04:30:13;;;;;;;;;;;;;;;19.11;41.83;100494.34;5096221;28;1979;-50
2020/12/08 04:32:42;;;;;;;;;;;;;;;20.38;39.35;100498.03;5095462;28;1220;-47
2020/12/08 04:35:08;;;;;;;;;;;;;;;20.58;38.75;100485.78;5096189;28;739;-62
2020/12/08 04:37:33;;;;;;;;;;;;;;;20.15;39.64;100484.09;5096178;28;743;-47
2020/12/08 04:39:58;;;;;;;;;;;;;;;19.94;40.23;100502.19;5096011;28;1004;-56
2020/12/08 04:42:24;;;;;;;;;;;;;;;19.60;41.04;100501.31;5096189;28;807;-57
2020/12/08 04:44:49;;;;;;;;;;;;;;;19.51;41.23;100499.56;5096166;28;775;-48
2020/12/08 04:47:21;;;;;;;;;;;;;;;20.43;39.32;100510.94;5094979;28;767;-49
2020/12/08 04:49:50;;;;;;;;;;;;;;;20.61;38.60;100510.00;5096070;28;1909;-50
2020/12/08 04:52:15;;;;;;;;;;;;;;;20.18;39.76;100513.06;5096116;28;771;-53
2020/12/08 04:54:41;;;;;;;;;;;;;;;19.92;40.03;100518.19;5095832;28;933;-47
2020/12/08 04:57:07;;;;;;;;;;;;;;;19.43;41.09;100504.63;5096164;28;831;-45
2020/12/08 04:59:32;;;;;;;;;;;;;;;20.00;40.12;100509.22;5096062;28;759;-49
2020/12/08 05:02:01;;;;;;;;;;;;;;;20.72;38.59;100505.13;5094742;28;756;-59
2020/12/08 05:04:27;;;;;;;;;;;;;;;20.45;39.17;100503.97;5096291;28;831;-47
2020/12/08 05:07:02;;;;;;;;;;;;;;;20.13;39.71;100525.00;5095919;28;790;-46
2020/12/08 05:09:28;;;;;;;;;;;;;;;19.81;40.47;100514.78;5096022;28;1913;-46
2020/12/08 05:11:57;;;;;;;;;;;;;;;19.30;41.39;100513.66;5096057;28;973;-45
2020/12/08 05:14:22;;;;;;;;;;;;;;;19.49;41.30;100500.66;5099609;28;816;-47
2020/12/08 05:16:47;;;;;;;;;;;;;;;20.38;39.39;100511.84;5097863;28;839;-46
2020/12/08 05:19:13;;;;;;;;;;;;;;;20.47;38.91;100507.25;5099400;28;1105;-50
2020/12/08 05:21:51;;;;;;;;;;;;;;;20.02;39.73;100500.66;5097613;28;867;-50
2020/12/08 05:24:23;;;;;;;;;;;;;;;19.85;40.31;100502.03;5099281;28;863;-47
2020/12/08 05:26:53;;;;;;;;;;;;;;;19.45;40.97;100501.56;5099329;28;1012;-49
2020/12/08 05:29:20;;;;;;;;;;;;;;;20.13;39.63;100497.41;5098912;28;1991;-50
2020/12/08 05:31:45;;;;;;;;;;;;;;;20.61;38.58;100496.19;5099275;28;780;-51
2020/12/08 05:34:11;;;;;;;;;;;;;;;20.15;39.59;100486.88;5098030;28;744;-49
2020/12/08 05:36:36;;;;;;;;;;;;;;;20.11;39.60;100488.59;5097598;28;751;-50
2020/12/08 05:39:01;;;;;;;;;;;;;;;19.81;40.14;100493.56;5097803;28;882;-48
2020/12/08 05:41:28;;;;;;;;;;;;;;;19.87;40.42;100486.00;5099131;28;930;-47
2020/12/08 05:43:54;;;;;;;;;;;;;;;20.63;38.46;100493.13;5098510;28;830;-53
2020/12/08 05:46:19;;;;;;;;;;;;;;;21.14;37.63;100485.69;5080710;28;843;-50
2020/12/08 05:48:44;;;;;;;;;;;;;;;20.74;38.10;100494.56;5097682;28;819;-45
2020/12/08 05:51:10;;;;;;;;;;;;;;;20.52;38.65;100498.03;5098724;28;1949;-46
2020/12/08 05:53:35;;;;;;;;;;;;;;;20.35;39.08;100495.88;5098963;28;800;-46
2020/12/08 05:56:07;;;;;;;;;;;;;;;19.79;40.37;100501.31;5098575;28;946;-48
2020/12/08 05:58:33;;;;;;;;;;;;;;;19.47;40.96;100511.19;5098747;28;783;-46
2020/12/08 06:01:05;;;;;;;;;;;;;;;19.45;41.20;100509.84;5098592;28;811;-48
2020/12/08 06:03:30;;;;;;;;;;;;;;;19.72;40.83;100519.34;5098604;28;871;-48
2020/12/08 06:06:04;;;;;;;;;;;;;;;19.91;40.17;100522.06;5098178;28;827;-47
2020/12/08 06:08:29;;;;;;;;;;;;;;;19.70;40.59;100522.41;5098255;28;775;-48
2020/12/08 06:10:55;;;;;;;;;;;;;;;19.53;40.77;100531.22;5096734;28;1905;-46
2020/12/08 06:13:24;;;;;;;;;;;;;;;19.99;40.18;100540.69;5096846;28;970;-46
2020/12/08 06:15:50;;;;;;;;;;;;;;;20.72;38.53;100530.00;5097443;28;613;-46
2020/12/08 06:18:15;;;;;;;;;;;;;;;20.22;39.14;100529.84;5097808;28;1211;-53
2020/12/08 06:20:41;;;;;;;;;;;;;;;20.09;39.60;100539.72;5098053;28;783;-47
2020/12/08 06:23:06;;;;;;;;;;;;;;;19.69;40.58;100542.84;5097445;28;807;-47
2020/12/08 06:25:32;;;;;;;;;;;;;;;19.37;41.06;100540.84;5097821;28;1008;-47
2020/12/08 06:28:01;;;;;;;;;;;;;;;20.29;39.43;100544.06;5097569;28;755;-47
2020/12/08 06:30:26;;;;;;;;;;;;;;;20.55;38.41;100538.03;5098301;28;1909;-46
2020/12/08 06:32:52;;;;;;;;;;;;;;;20.18;39.41;100529.63;5097887;28;771;-46
2020/12/08 06:35:17;;;;;;;;;;;;;;;20.03;39.52;100529.88;5097734;28;759;-47
2020/12/08 06:37:48;;;;;;;;;;;;;;;19.49;40.70;100531.00;5098256;28;842;-47
2020/12/08 06:40:14;;;;;;;;;;;;;;;19.95;40.06;100534.16;5097700;28;1024;-45
2020/12/08 06:42:40;;;;;;;;;;;;;;;20.75;38.23;100532.13;5097874;28;803;-56
2020/12/08 06:45:09;;;;;;;;;;;;;;;20.18;39.17;100538.69;5096515;28;787;-47
2020/12/08 06:47:34;;;;;;;;;;;;;;;20.03;39.62;100540.94;5097702;28;806;-48
2020/12/08 06:50:00;;;;;;;;;;;;;;;19.65;40.32;100530.75;5097364;28;1976;-50
2020/12/08 06:52:25;;;;;;;;;;;;;;;19.44;40.95;100536.59;5097663;28;846;-47
2020/12/08 06:54:57;;;;;;;;;;;;;;;20.51;38.55;100535.09;5097169;28;941;-48
2020/12/08 06:57:23;;;;;;;;;;;;;;;20.41;38.81;100533.34;5097382;28;498;-46
2020/12/08 06:59:48;;;;;;;;;;;;;;;20.28;39.21;100536.88;5097907;28;759;-46
2020/12/08 07:02:14;;;;;;;;;;;;;;;20.15;39.46;100533.00;5097382;28;756;-55
2020/12/08 07:04:39;;;;;;;;;;;;;;;19.79;40.01;100531.66;5097104;28;756;-56
2020/12/08 07:07:04;;;;;;;;;;;;;;;19.81;40.13;100529.44;5095860;28;976;-47
2020/12/08 07:09:31;;;;;;;;;;;;;;;20.56;38.71;100531.41;5096273;28;1897;-51
2020/12/08 07:12:00;;;;;;;;;;;;;;;20.42;38.73;100532.19;5095549;28;962;-48
2020/12/08 07:14:26;;;;;;;;;;;;;;;20.17;39.09;100530.72;5097254;28;820;-46
2020/12/08 07:16:52;;;;;;;;;;;;;;;19.95;39.75;100528.63;5097338;28;867;-57
2020/12/08 07:19:17;;;;;;;;;;;;;;;19.57;40.53;100531.44;5095345;28;991;-49
2020/12/08 07:21:42;;;;;;;;;;;;;;;19.97;39.80;100531.91;5097160;28;810;-48
2020/12/08 07:24:08;;;;;;;;;;;;;;;20.80;38.16;100526.50;5095562;28;847;-48
2020/12/08 07:26:34;;;;;;;;;;;;;;;20.38;38.76;100531.16;5096687;28;1047;-54
2020/12/08 07:28:59;;;;;;;;;;;;;;;20.37;39.00;100543.34;5097051;28;1918;-47
2020/12/08 07:31:31;;;;;;;;;;;;;;;19.70;40.11;100538.97;5096860;28;908;-48
2020/12/08 07:33:57;;;;;;;;;;;;;;;19.55;40.84;100542.78;5096748;28;815;-49
2020/12/08 07:36:29;;;;;;;;;;;;;;;20.48;38.81;100547.56;5096668;28;858;-47
2020/12/08 07:38:55;;;;;;;;;;;;;;;20.22;39.23;100549.16;5089196;28;824;-48
2020/12/08 07:41:20;;;;;;;;;;;;;;;20.21;39.03;100542.81;5095085;28;958;-47
2020/12/08 07:43:46;;;;;;;;;;;;;;;19.88;39.80;100548.34;5096814;28;760;-46
2020/12/08 07:46:11;;;;;;;;;;;;;;;19.46;40.72;100547.31;5096626;28;771;-53
2020/12/08 07:48:37;;;;;;;;;;;;;;;20.02;39.62;100550.31;5096882;28;791;-47
2020/12/08 07:51:02;;;;;;;;;;;;;;;20.75;37.93;100545.97;5096713;28;1913;-47
2020/12/08 07:53:34;;;;;;;;;;;;;;;20.17;39.36;100545.38;5096413;28;736;-48
2020/12/08 07:56:00;;;;;;;;;;;;;;;20.17;38.99;100542.59;5096247;28;929;-46
2020/12/08 07:58:25;;;;;;;;;;;;;;;19.75;40.08;100547.13;5096795;28;780;-46
2020/12/08 08:00:51;;;;;;;;;;;;;;;19.36;41.24;100562.06;5096494;28;823;-46
2020/12/08 08:03:16;;;;;;;;;;;;;;;20.43;38.52;100563.41;5096449;28;831;-47
2020/12/08 08:05:41;;;;;;;;;;;;;;;20.35;38.63;100562.16;5095210;28;943;-46
2020/12/08 08:08:07;;;;;;;;;;;;;;;20.29;38.78;100560.63;5095107;28;837;-48
2020/12/08 08:10:32;;;;;;;;;;;;;;;19.88;39.83;100553.88;5096175;28;1976;-46
2020/12/08 08:12:58;;;;;;;;;;;;;;;19.65;40.37;100563.84;5096128;28;739;-46
2020/12/08 08:15:23;;;;;;;;;;;;;;;19.87;39.78;100562.47;5096491;28;779;-46
2020/12/08 08:17:49;;;;;;;;;;;;;;;20.64;38.29;100566.59;5096419;28;1075;-47
2020/12/08 08:20:14;;;;;;;;;;;;;;;20.28;38.90;100558.97;5096151;28;810;-46
2020/12/08 08:22:39;;;;;;;;;;;;;;;20.28;38.88;100561.75;5096353;28;763;-47
2020/12/08 08:25:05;;;;;;;;;;;;;;;19.87;39.59;100565.22;5096170;28;1032;-48
2020/12/08 08:27:30;;;;;;;;;;;;;;;19.87;39.79;100565.22;5095985;28;787;-46
2020/12/08 08:29:56;;;;;;;;;;;;;;;20.73;38.05;100570.28;5096618;28;1901;-46
2020/12/08 08:32:21;;;;;;;;;;;;;;;20.38;38.72;100580.06;5096436;28;851;-46
2020/12/08 08:34:47;;;;;;;;;;;;;;;20.27;38.77;100569.22;5095787;28;774;-46
2020/12/08 08:37:13;;;;;;;;;;;;;;;19.99;39.34;100584.84;5096335;28;743;-46
2020/12/08 08:39:38;;;;;;;;;;;;;;;19.45;40.77;100585.09;5096291;28;834;-46
2020/12/08 08:42:04;;;;;;;;;;;;;;;19.93;39.86;100584.13;5095934;28;957;-46
2020/12/08 08:44:29;;;;;;;;;;;;;;;20.79;37.96;100585.66;5096235;28;846;-47
2020/12/08 08:46:55;;;;;;;;;;;;;;;20.31;38.90;100575.78;5096197;28;803;-46
2020/12/08 08:49:20;;;;;;;;;;;;;;;20.10;39.30;100574.47;5096613;28;1972;-46
2020/12/08 08:51:46;;;;;;;;;;;;;;;19.80;39.60;100571.91;5100053;28;863;-45
2020/12/08 08:54:12;;;;;;;;;;;;;;;19.62;40.42;100570.78;5099865;28;788;-47
2020/12/08 08:56:37;;;;;;;;;;;;;;;20.58;38.24;100571.41;5099300;28;1016;-46
2020/12/08 08:59:03;;;;;;;;;;;;;;;20.36;38.76;100577.59;5100002;28;771;-46
2020/12/08 09:01:29;;;;;;;;;;;;;;;20.11;39.24;100576.13;5099774;28;790;-45
2020/12/08 09:03:54;;;;;;;;;;;;;;;20.02;39.27;100583.44;5099517;28;815;-46
2020/12/08 09:06:20;;;;;;;;;;;;;;;19.60;40.11;100583.22;5100027;28;518;-55
2020/12/08 09:08:45;;;;;;;;;;;;;;;19.15;40.99;100581.66;5099277;28;703;-53
2020/12/08 09:11:11;;;;;;;;;;;;;;;20.13;39.12;100574.69;5099177;28;1917;-47
2020/12/08 09:13:36;;;;;;;;;;;;;;;20.70;37.87;100570.91;5099660;28;846;-47
2020/12/08 09:16:02;;;;;;;;;;;;;;;20.26;38.61;100572.25;5099315;28;834;-47
2020/12/08 09:18:28;;;;;;;;;;;;;;;20.16;38.89;100568.56;5099192;28;1051;-49
2020/12/08 09:20:53;;;;;;;;;;;;;;;19.65;39.81;100572.13;5099484;28;910;-49
2020/12/08 09:23:22;;;;;;;;;;;;;;;19.46;40.39;100572.13;5099318;28;842;-48
2020/12/08 09:25:48;;;;;;;;;;;;;;;20.45;38.55;100575.75;5098807;28;973;-46
2020/12/08 09:28:13;;;;;;;;;;;;;;;20.64;37.61;100563.84;5099195;28;819;-48
2020/12/08 09:30:39;;;;;;;;;;;;;;;20.32;38.62;100569.09;5099296;28;1921;-46
2020/12/08 09:33:05;;;;;;;;;;;;;;;20.14;38.74;100570.00;5098792;28;768;-44
2020/12/08 09:35:30;;;;;;;;;;;;;;;19.61;39.85;100587.63;5099191;28;780;-46
2020/12/08 09:37:55;;;;;;;;;;;;;;;19.77;39.75;100571.69;5099048;28;751;-46
2020/12/08 09:40:21;;;;;;;;;;;;;;;20.59;38.06;100570.25;5098520;28;882;-47
2020/12/08 09:42:47;;;;;;;;;;;;;;;20.75;37.70;100573.59;5098394;28;858;-47
2020/12/08 09:45:13;;;;;;;;;;;;;;;20.54;38.08;100575.06;5099180;28;795;-46
2020/12/08 09:47:38;;;;;;;;;;;;;;;20.06;39.05;100577.00;5098734;28;747;-45
2020/12/08 09:50:04;;;;;;;;;;;;;;;19.48;40.14;100586.44;5098828;28;1978;-48
2020/12/08 09:52:29;;;;;;;;;;;;;;;20.11;38.95;100590.72;5098805;28;842;-49
2020/12/08 09:54:55;;;;;;;;;;;;;;;20.64;37.76;100588.69;5098168;28;1142;-48
2020/12/08 09:57:20;;;;;;;;;;;;;;;20.24;38.73;100580.03;5099125;28;817;-47
2020/12/08 09:59:45;;;;;;;;;;;;;;;19.99;38.88;100587.63;5098634;28;787;-48
2020/12/08 10:02:11;;;;;;;;;;;;;;;19.78;39.33;100596.22;5097684;28;767;-48
2020/12/08 10:04:36;;;;;;;;;;;;;;;19.72;39.85;100597.41;5098498;28;811;-47
2020/12/08 10:07:02;;;;;;;;;;;;;;;20.73;37.54;100591.59;5098710;28;749;-47
2020/12/08 10:09:27;;;;;;;;;;;;;;;20.35;38.13;100593.34;5098367;28;1980;-47
2020/12/08 10:11:53;;;;;;;;;;;;;;;20.41;38.26;100594.09;5098282;28;961;-47
2020/12/08 10:14:18;;;;;;;;;;;;;;;19.85;39.22;100600.56;5098487;28;775;-47
2020/12/08 10:16:44;;;;;;;;;;;;;;;19.14;40.89;100602.06;5098180;28;799;-48
2020/12/08 10:19:09;;;;;;;;;;;;;;;20.32;38.52;100593.16;5098268;28;1162;-46
2020/12/08 10:21:35;;;;;;;;;;;;;;;20.48;37.96;100585.38;5098134;28;751;-47
2020/12/08 10:24:00;;;;;;;;;;;;;;;20.27;38.46;100591.31;5098104;28;835;-48
2020/12/08 10:26:26;;;;;;;;;;;;;;;20.24;38.55;100599.34;5096719;28;974;-47
2020/12/08 10:28:51;;;;;;;;;;;;;;;19.49;39.84;100599.13;5097881;28;819;-48
2020/12/08 10:31:17;;;;;;;;;;;;;;;19.41;40.29;100603.34;5098077;28;1910;-45
2020/12/08 10:33:43;;;;;;;;;;;;;;;19.98;39.14;100594.28;5097910;28;823;-48
2020/12/08 10:36:08;;;;;;;;;;;;;;;20.77;37.43;100598.94;5097894;28;739;-47
2020/12/08 10:38:34;;;;;;;;;;;;;;;20.26;38.59;100594.34;5098049;28;898;-47
2020/12/08 10:40:59;;;;;;;;;;;;;;;20.20;38.69;100609.38;5097701;28;961;-48
2020/12/08 10:43:24;;;;;;;;;;;;;;;19.86;39.31;100605.78;5097716;28;791;-46
2020/12/08 10:45:50;;;;;;;;;;;;;;;19.88;39.18;100592.50;5097862;28;815;-49
2020/12/08 10:48:15;;;;;;;;;;;;;;;20.55;37.89;100601.56;5095985;28;923;-47
2020/12/08 10:50:41;;;;;;;;;;;;;;;20.35;38.10;100603.56;5097711;28;1913;-47
2020/12/08 10:53:07;;;;;;;;;;;;;;;20.12;38.59;100606.19;5096485;28;1294;-51
2020/12/08 10:55:33;;;;;;;;;;;;;;;19.69;39.42;100609.03;5097080;28;996;-50
2020/12/08 10:57:58;;;;;;;;;;;;;;;19.29;40.20;100603.81;5097658;28;743;-49
2020/12/08 11:00:24;;;;;;;;;;;;;;;20.22;38.67;100607.13;5097646;28;811;-50
2020/12/08 11:02:49;;;;;;;;;;;;;;;20.65;37.44;100598.59;5097034;28;839;-48
2020/12/08 11:05:14;;;;;;;;;;;;;;;20.12;38.65;100592.38;5097776;28;784;-48
2020/12/08 11:07:40;;;;;;;;;;;;;;;20.16;38.39;100603.63;5097597;28;778;-48
2020/12/08 11:10:05;;;;;;;;;;;;;;;19.87;38.88;100615.69;5096755;28;1906;-50
2020/12/08 11:12:31;;;;;;;;;;;;;;;19.91;39.12;100610.38;5097626;28;791;-47
2020/12/08 11:14:56;;;;;;;;;;;;;;;20.58;37.80;100615.59;5097541;28;775;-48
2020/12/08 11:17:22;;;;;;;;;;;;;;;20.45;37.89;100608.91;5096716;28;1089;-48
2020/12/08 11:19:47;;;;;;;;;;;;;;;20.24;38.42;100602.13;5097222;28;776;-47
2020/12/08 11:22:13;;;;;;;;;;;;;;;19.75;39.19;100605.06;5097409;28;815;-46
2020/12/08 11:24:39;;;;;;;;;;;;;;;19.70;39.34;100599.66;5096720;28;807;-56
2020/12/08 11:27:04;;;;;;;;;;;;;;;20.61;37.52;100592.06;5096807;28;1102;-47
2020/12/08 11:29:29;;;;;;;;;;;;;;;20.73;37.19;100600.69;5097093;28;1913;-47
2020/12/08 11:31:55;;;;;;;;;;;;;;;20.35;38.10;100600.81;5096610;28;743;-47
2020/12/08 11:34:20;;;;;;;;;;;;;;;20.06;38.28;100599.09;5097027;28;735;-48
2020/12/08 11:36:46;;;;;;;;;;;;;;;19.56;39.55;100604.25;5096888;28;850;-47
2020/12/08 11:39:11;;;;;;;;;;;;;;;20.00;38.81;100603.88;5096839;28;776;-47
2020/12/08 11:41:40;;;;;;;;;;;;;;;20.70;37.28;100606.03;5096624;28;949;-50
2020/12/08 11:44:06;;;;;;;;;;;;;;;20.22;38.33;100594.16;5096799;28;763;-47
2020/12/08 11:46:31;;;;;;;;;;;;;;;20.14;38.55;100597.59;5096406;28;736;-49
2020/12/08 11:48:57;;;;;;;;;;;;;;;19.60;39.42;100602.53;5096726;28;752;-48
2020/12/08 11:51:22;;;;;;;;;;;;;;;20.04;38.55;100606.88;5095336;28;1914;-54
2020/12/08 11:53:48;;;;;;;;;;;;;;;20.74;37.25;100605.09;5095027;28;970;-56
2020/12/08 11:56:14;;;;;;;;;;;;;;;20.30;38.11;100611.94;5096373;28;929;-48
2020/12/08 11:58:39;;;;;;;;;;;;;;;20.22;38.36;100616.22;5096513;28;767;-50
2020/12/08 12:01:06;;;;;;;;;;;;;;;19.74;39.07;100611.72;5096384;28;743;-47
2020/12/08 12:03:31;;;;;;;;;;;;;;;19.33;40.18;100617.81;5097213;28;779;-51
2020/12/08 12:05:57;;;;;;;;;;;;;;;20.48;37.98;100624.91;5096607;28;779;-48
2020/12/08 12:08:22;;;;;;;;;;;;;;;20.64;37.45;100621.84;5096351;28;743;-48
2020/12/08 12:10:48;;;;;;;;;;;;;;;20.52;37.80;100625.94;5096260;28;1917;-49
2020/12/08 12:13:14;;;;;;;;;;;;;;;20.30;37.96;100628.50;5096360;28;794;-51
2020/12/08 12:15:40;;;;;;;;;;;;;;;19.58;39.61;100626.84;5096268;28;787;-48
2020/12/08 12:18:07;;;;;;;;;;;;;;;19.40;40.03;100621.00;5096300;28;1063;-55
2020/12/08 12:20:33;;;;;;;;;;;;;;;20.34;38.06;100629.53;5096212;28;842;-50
2020/12/08 12:22:58;;;;;;;;;;;;;;;20.91;37.00;100628.56;5096500;28;857;-47
2020/12/08 12:25:25;;;;;;;;;;;;;;;20.25;38.46;100637.72;5098946;28;1005;-47
2020/12/08 12:27:50;;;;;;;;;;;;;;;20.22;38.34;100630.03;5099056;28;807;-46
2020/12/08 12:30:16;;;;;;;;;;;;;;;19.65;39.57;100636.38;5100207;28;1913;-47
2020/12/08 12:32:41;;;;;;;;;;;;;;;19.46;39.87;100655.69;5100389;28;779;-47
2020/12/08 12:35:07;;;;;;;;;;;;;;;20.22;38.34;100643.03;5100138;28;748;-46
2020/12/08 12:37:32;;;;;;;;;;;;;;;20.80;37.05;100656.41;5100524;28;771;-46
2020/12/08 12:39:58;;;;;;;;;;;;;;;21.33;35.84;100657.00;5100316;28;1005;-48
2020/12/08 12:42:24;;;;;;;;;;;;;;;20.60;37.63;100659.50;5098479;28;883;-46
2020/12/08 12:44:50;;;;;;;;;;;;;;;20.51;37.92;100665.72;5098673;28;1159;-47
2020/12/08 12:47:15;;;;;;;;;;;;;;;20.03;38.84;100671.47;5100205;28;815;-46